sensor_id;sensor_type;location;lat;lon;timestamp;temperature;humidity
5743;DHT22;2896;53.500;10.020;2024-02-23T00:01:43;9.80;99.90
5743;DHT22;2896;53.500;10.020;2024-02-23T00:04:10;9.80;99.90
5743;DHT22;2896;53.500;10.020;2024-02-23T00:06:37;9.80;1.00
5743;DHT22;2896;53.500;10.020;2024-02-23T00:09:04;9.80;1.00
5743;DHT22;2896;53.500;10.020;2024-02-23T00:11:32;9.80;99.90
5743;DHT22;2896;53.500;10.020;2024-02-23T00:13:59;9.70;1.00
5743;DHT22;2896;53.500;10.020;2024-02-23T00:16:26;9.60;1.00
5743;DHT22;2896;53.500;10.020;2024-02-23T00:18:53;9.60;1.00
5743;DHT22;2896;53.500;10.020;2024-02-23T00:21:19;9.50;1.00
5743;DHT22;2896;53.500;10.020;2024-02-23T00:23:46;9.50;21.60
5743;DHT22;2896;53.500;10.020;2024-02-23T00:26:13;9.40;1.00
5743;DHT22;2896;53.500;10.020;2024-02-23T00:28:41;9.40;99.90
5743;DHT22;2896;53.500;10.020;2024-02-23T00:31:08;9.30;99.90
5743;DHT22;2896;53.500;10.020;2024-02-23T00:33:34;9.30;99.90
5743;DHT22;2896;53.500;10.020;2024-02-23T00:36:03;9.30;99.90
5743;DHT22;2896;53.500;10.020;2024-02-23T00:38:30;9.20;99.90
5743;DHT22;2896;53.500;10.020;2024-02-23T00:40:56;9.20;99.90
5743;DHT22;2896;53.500;10.020;2024-02-23T00:43:23;9.20;99.90
5743;DHT22;2896;53.500;10.020;2024-02-23T00:45:51;9.20;99.90
5743;DHT22;2896;53.500;10.020;2024-02-23T00:48:17;9.20;99.90
5743;DHT22;2896;53.500;10.020;2024-02-23T00:50:44;9.30;99.90
5743;DHT22;2896;53.500;10.020;2024-02-23T00:53:11;9.30;99.90
5743;DHT22;2896;53.500;10.020;2024-02-23T00:55:37;9.20;1.00
5743;DHT22;2896;53.500;10.020;2024-02-23T00:58:04;9.10;1.00
5743;DHT22;2896;53.500;10.020;2024-02-23T01:00:30;8.80;99.90
5743;DHT22;2896;53.500;10.020;2024-02-23T01:02:59;8.40;99.90
5743;DHT22;2896;53.500;10.020;2024-02-23T01:05:25;7.90;1.00
5743;DHT22;2896;53.500;10.020;2024-02-23T01:07:52;7.60;99.90
5743;DHT22;2896;53.500;10.020;2024-02-23T01:10:19;7.40;48.00
5743;DHT22;2896;53.500;10.020;2024-02-23T01:12:45;7.30;81.00
5743;DHT22;2896;53.500;10.020;2024-02-23T01:15:12;7.20;46.70
5743;DHT22;2896;53.500;10.020;2024-02-23T01:17:38;7.10;99.90
5743;DHT22;2896;53.500;10.020;2024-02-23T01:20:07;7.00;99.90
5743;DHT22;2896;53.500;10.020;2024-02-23T01:22:34;7.10;99.90
5743;DHT22;2896;53.500;10.020;2024-02-23T01:25:01;7.00;99.90
5743;DHT22;2896;53.500;10.020;2024-02-23T01:27:27;7.00;99.90
5743;DHT22;2896;53.500;10.020;2024-02-23T01:29:54;8.70;99.90
5743;DHT22;2896;53.500;10.020;2024-02-23T01:32:20;6.80;99.90
5743;DHT22;2896;53.500;10.020;2024-02-23T01:34:47;6.80;99.90
5743;DHT22;2896;53.500;10.020;2024-02-23T01:37:15;6.80;99.90
5743;DHT22;2896;53.500;10.020;2024-02-23T01:39:42;6.80;99.90
5743;DHT22;2896;53.500;10.020;2024-02-23T01:42:08;6.70;99.90
5743;DHT22;2896;53.500;10.020;2024-02-23T01:44:35;6.70;99.90
5743;DHT22;2896;53.500;10.020;2024-02-23T01:47:02;6.70;99.90
5743;DHT22;2896;53.500;10.020;2024-02-23T01:49:29;6.70;99.90
5743;DHT22;2896;53.500;10.020;2024-02-23T01:51:57;6.70;99.90
5743;DHT22;2896;53.500;10.020;2024-02-23T01:54:25;6.70;99.90
5743;DHT22;2896;53.500;10.020;2024-02-23T01:56:53;6.70;99.90
5743;DHT22;2896;53.500;10.020;2024-02-23T01:59:21;6.70;99.90
5743;DHT22;2896;53.500;10.020;2024-02-23T02:01:48;6.70;99.90
5743;DHT22;2896;53.500;10.020;2024-02-23T02:04:15;6.70;99.90
5743;DHT22;2896;53.500;10.020;2024-02-23T02:06:42;6.80;99.90
5743;DHT22;2896;53.500;10.020;2024-02-23T02:09:09;6.80;99.90
5743;DHT22;2896;53.500;10.020;2024-02-23T02:11:46;6.80;99.90
5743;DHT22;2896;53.500;10.020;2024-02-23T02:14:12;6.80;99.90
5743;DHT22;2896;53.500;10.020;2024-02-23T02:16:39;6.80;99.90
5743;DHT22;2896;53.500;10.020;2024-02-23T02:19:06;6.80;1.00
5743;DHT22;2896;53.500;10.020;2024-02-23T02:21:33;6.80;1.00
5743;DHT22;2896;53.500;10.020;2024-02-23T02:23:59;6.70;1.00
5743;DHT22;2896;53.500;10.020;2024-02-23T02:26:26;6.80;72.80
5743;DHT22;2896;53.500;10.020;2024-02-23T02:28:54;6.80;1.00
5743;DHT22;2896;53.500;10.020;2024-02-23T02:31:21;6.80;1.00
5743;DHT22;2896;53.500;10.020;2024-02-23T02:33:47;6.20;1.00
5743;DHT22;2896;53.500;10.020;2024-02-23T02:36:14;6.70;99.90
5743;DHT22;2896;53.500;10.020;2024-02-23T02:38:40;6.70;1.00
5743;DHT22;2896;53.500;10.020;2024-02-23T02:41:08;6.60;99.90
5743;DHT22;2896;53.500;10.020;2024-02-23T02:43:35;6.60;99.90
5743;DHT22;2896;53.500;10.020;2024-02-23T02:46:03;6.60;1.00
5743;DHT22;2896;53.500;10.020;2024-02-23T02:48:30;6.70;40.10
5743;DHT22;2896;53.500;10.020;2024-02-23T02:50:56;6.60;99.90
5743;DHT22;2896;53.500;10.020;2024-02-23T02:53:23;6.60;99.90
5743;DHT22;2896;53.500;10.020;2024-02-23T02:55:50;6.40;1.00
5743;DHT22;2896;53.500;10.020;2024-02-23T02:58:16;6.40;1.00
5743;DHT22;2896;53.500;10.020;2024-02-23T03:00:43;6.40;13.10
5743;DHT22;2896;53.500;10.020;2024-02-23T03:03:11;6.40;1.00
5743;DHT22;2896;53.500;10.020;2024-02-23T03:05:38;6.50;99.90
5743;DHT22;2896;53.500;10.020;2024-02-23T03:08:06;6.40;1.00
5743;DHT22;2896;53.500;10.020;2024-02-23T03:10:32;6.40;25.60
5743;DHT22;2896;53.500;10.020;2024-02-23T03:12:59;6.30;99.90
5743;DHT22;2896;53.500;10.020;2024-02-23T03:15:26;6.20;99.90
5743;DHT22;2896;53.500;10.020;2024-02-23T03:17:52;6.20;1.00
5743;DHT22;2896;53.500;10.020;2024-02-23T03:20:21;6.20;99.90
5743;DHT22;2896;53.500;10.020;2024-02-23T03:22:48;6.20;1.00
5743;DHT22;2896;53.500;10.020;2024-02-23T03:25:14;6.10;1.00
5743;DHT22;2896;53.500;10.020;2024-02-23T03:27:41;6.00;99.90
5743;DHT22;2896;53.500;10.020;2024-02-23T03:30:08;6.10;1.00
5743;DHT22;2896;53.500;10.020;2024-02-23T03:32:35;6.00;1.00
5743;DHT22;2896;53.500;10.020;2024-02-23T03:35:03;6.00;99.90
5743;DHT22;2896;53.500;10.020;2024-02-23T03:37:32;6.10;94.20
5743;DHT22;2896;53.500;10.020;2024-02-23T03:39:59;6.10;1.00
5743;DHT22;2896;53.500;10.020;2024-02-23T03:42:26;6.00;1.00
5743;DHT22;2896;53.500;10.020;2024-02-23T03:54:42;5.70;99.90
5743;DHT22;2896;53.500;10.020;2024-02-23T04:02:03;5.60;38.20
5743;DHT22;2896;53.500;10.020;2024-02-23T04:04:30;5.60;99.90
5743;DHT22;2896;53.500;10.020;2024-02-23T04:06:57;5.60;99.90
5743;DHT22;2896;53.500;10.020;2024-02-23T04:09:23;5.60;99.90
5743;DHT22;2896;53.500;10.020;2024-02-23T04:11:51;5.60;1.00
5743;DHT22;2896;53.500;10.020;2024-02-23T04:14:18;5.60;1.00
5743;DHT22;2896;53.500;10.020;2024-02-23T04:16:44;5.60;1.00
5743;DHT22;2896;53.500;10.020;2024-02-23T04:21:38;5.60;99.90
5743;DHT22;2896;53.500;10.020;2024-02-23T04:24:05;5.60;99.90
5743;DHT22;2896;53.500;10.020;2024-02-23T04:29:00;5.60;1.00
5743;DHT22;2896;53.500;10.020;2024-02-23T04:31:27;5.50;1.00
5743;DHT22;2896;53.500;10.020;2024-02-23T04:33:54;5.60;1.00
5743;DHT22;2896;53.500;10.020;2024-02-23T04:38:48;5.50;1.00
5743;DHT22;2896;53.500;10.020;2024-02-23T04:41:18;5.60;99.90
5743;DHT22;2896;53.500;10.020;2024-02-23T04:43:45;5.50;1.00
5743;DHT22;2896;53.500;10.020;2024-02-23T04:46:13;5.60;99.90
5743;DHT22;2896;53.500;10.020;2024-02-23T04:48:40;5.70;99.90
5743;DHT22;2896;53.500;10.020;2024-02-23T04:51:07;5.60;99.90
5743;DHT22;2896;53.500;10.020;2024-02-23T04:53:36;5.60;1.00
5743;DHT22;2896;53.500;10.020;2024-02-23T04:56:03;5.60;1.00
5743;DHT22;2896;53.500;10.020;2024-02-23T04:58:30;5.60;99.90
5743;DHT22;2896;53.500;10.020;2024-02-23T05:00:57;5.60;99.90
5743;DHT22;2896;53.500;10.020;2024-02-23T05:03:24;5.50;97.20
5743;DHT22;2896;53.500;10.020;2024-02-23T05:05:51;5.40;1.00
5743;DHT22;2896;53.500;10.020;2024-02-23T05:08:19;5.40;1.00
5743;DHT22;2896;53.500;10.020;2024-02-23T05:15:41;5.30;99.90
5743;DHT22;2896;53.500;10.020;2024-02-23T05:20:35;5.30;1.00
5743;DHT22;2896;53.500;10.020;2024-02-23T05:32:50;5.30;99.90
5743;DHT22;2896;53.500;10.020;2024-02-23T05:37:46;5.40;2.40
5743;DHT22;2896;53.500;10.020;2024-02-23T05:42:40;5.40;99.90
5743;DHT22;2896;53.500;10.020;2024-02-23T05:45:07;5.40;99.90
5743;DHT22;2896;53.500;10.020;2024-02-23T05:47:35;5.40;1.00
5743;DHT22;2896;53.500;10.020;2024-02-23T05:50:02;5.40;99.90
5743;DHT22;2896;53.500;10.020;2024-02-23T05:52:29;5.40;1.80
5743;DHT22;2896;53.500;10.020;2024-02-23T05:54:57;5.30;99.90
5743;DHT22;2896;53.500;10.020;2024-02-23T06:12:10;5.30;1.00
5743;DHT22;2896;53.500;10.020;2024-02-23T06:19:32;5.30;1.00
5743;DHT22;2896;53.500;10.020;2024-02-23T06:24:25;5.20;15.10
5743;DHT22;2896;53.500;10.020;2024-02-23T06:26:52;5.20;16.30
5743;DHT22;2896;53.500;10.020;2024-02-23T06:29:20;5.20;1.00
5743;DHT22;2896;53.500;10.020;2024-02-23T06:34:14;5.00;15.20
5743;DHT22;2896;53.500;10.020;2024-02-23T06:41:36;5.10;1.00
5743;DHT22;2896;53.500;10.020;2024-02-23T06:46:32;5.10;1.00
5743;DHT22;2896;53.500;10.020;2024-02-23T06:48:59;5.10;1.00
5743;DHT22;2896;53.500;10.020;2024-02-23T06:53:53;5.10;1.00
5743;DHT22;2896;53.500;10.020;2024-02-23T06:56:20;5.20;1.00
5743;DHT22;2896;53.500;10.020;2024-02-23T07:03:42;5.20;1.00
5743;DHT22;2896;53.500;10.020;2024-02-23T07:08:37;5.20;1.00
5743;DHT22;2896;53.500;10.020;2024-02-23T07:13:31;5.40;1.00
5743;DHT22;2896;53.500;10.020;2024-02-23T07:20:53;5.80;99.90
5743;DHT22;2896;53.500;10.020;2024-02-23T07:23:20;5.90;99.90
5743;DHT22;2896;53.500;10.020;2024-02-23T07:28:16;5.90;1.00
5743;DHT22;2896;53.500;10.020;2024-02-23T07:30:45;5.90;1.00
5743;DHT22;2896;53.500;10.020;2024-02-23T07:38:06;5.90;99.90
5743;DHT22;2896;53.500;10.020;2024-02-23T07:45:27;5.80;1.00
5743;DHT22;2896;53.500;10.020;2024-02-23T07:47:53;6.00;1.00
5743;DHT22;2896;53.500;10.020;2024-02-23T07:55:15;6.00;99.90
5743;DHT22;2896;53.500;10.020;2024-02-23T08:12:26;6.60;1.00
5743;DHT22;2896;53.500;10.020;2024-02-23T08:29:39;7.30;1.00
5743;DHT22;2896;53.500;10.020;2024-02-23T08:32:07;7.40;99.90
5743;DHT22;2896;53.500;10.020;2024-02-23T08:34:33;7.60;99.90
5743;DHT22;2896;53.500;10.020;2024-02-23T08:46:50;7.70;1.00
5743;DHT22;2896;53.500;10.020;2024-02-23T08:56:38;7.80;1.00
5743;DHT22;2896;53.500;10.020;2024-02-23T08:59:07;7.80;1.00
5743;DHT22;2896;53.500;10.020;2024-02-23T09:04:02;8.00;1.00
5743;DHT22;2896;53.500;10.020;2024-02-23T09:06:29;8.00;1.00
5743;DHT22;2896;53.500;10.020;2024-02-23T09:16:17;8.00;99.90
5743;DHT22;2896;53.500;10.020;2024-02-23T09:18:44;8.00;99.90
5743;DHT22;2896;53.500;10.020;2024-02-23T09:21:12;8.00;62.90
5743;DHT22;2896;53.500;10.020;2024-02-23T09:26:10;7.90;99.90
5743;DHT22;2896;53.500;10.020;2024-02-23T09:31:06;8.00;1.00
5743;DHT22;2896;53.500;10.020;2024-02-23T09:33:32;7.80;7.90
5743;DHT22;2896;53.500;10.020;2024-02-23T09:38:27;8.30;99.90
5743;DHT22;2896;53.500;10.020;2024-02-23T09:40:54;8.30;99.90
5743;DHT22;2896;53.500;10.020;2024-02-23T09:43:21;8.20;1.00
5743;DHT22;2896;53.500;10.020;2024-02-23T09:45:51;8.40;1.00
5743;DHT22;2896;53.500;10.020;2024-02-23T09:48:18;5.20;1.00
5743;DHT22;2896;53.500;10.020;2024-02-23T09:50:46;8.50;1.00
5743;DHT22;2896;53.500;10.020;2024-02-23T09:53:13;8.50;1.00
5743;DHT22;2896;53.500;10.020;2024-02-23T09:55:43;8.80;1.00
5743;DHT22;2896;53.500;10.020;2024-02-23T09:58:13;8.80;99.90
5743;DHT22;2896;53.500;10.020;2024-02-23T10:00:41;8.60;99.90
5743;DHT22;2896;53.500;10.020;2024-02-23T10:03:08;8.50;99.90
5743;DHT22;2896;53.500;10.020;2024-02-23T10:05:35;8.60;99.90
5743;DHT22;2896;53.500;10.020;2024-02-23T10:08:01;8.60;99.90
5743;DHT22;2896;53.500;10.020;2024-02-23T10:10:29;8.80;99.90
5743;DHT22;2896;53.500;10.020;2024-02-23T10:12:58;8.70;99.90
5743;DHT22;2896;53.500;10.020;2024-02-23T10:15:25;8.70;99.90
5743;DHT22;2896;53.500;10.020;2024-02-23T10:17:52;8.90;99.90
5743;DHT22;2896;53.500;10.020;2024-02-23T10:20:19;9.20;99.90
5743;DHT22;2896;53.500;10.020;2024-02-23T10:22:46;9.40;57.40
5743;DHT22;2896;53.500;10.020;2024-02-23T10:25:13;9.30;1.00
5743;DHT22;2896;53.500;10.020;2024-02-23T10:27:40;9.10;18.10
5743;DHT22;2896;53.500;10.020;2024-02-23T10:30:09;9.10;99.90
5743;DHT22;2896;53.500;10.020;2024-02-23T10:32:38;9.20;40.80
5743;DHT22;2896;53.500;10.020;2024-02-23T10:35:09;9.30;12.00
5743;DHT22;2896;53.500;10.020;2024-02-23T10:37:36;9.40;1.00
5743;DHT22;2896;53.500;10.020;2024-02-23T10:40:06;9.60;1.00
5743;DHT22;2896;53.500;10.020;2024-02-23T10:42:36;9.50;1.00
5743;DHT22;2896;53.500;10.020;2024-02-23T10:45:05;9.90;1.00
5743;DHT22;2896;53.500;10.020;2024-02-23T10:47:35;9.80;1.00
5743;DHT22;2896;53.500;10.020;2024-02-23T10:50:02;9.70;1.00
5743;DHT22;2896;53.500;10.020;2024-02-23T10:52:30;9.90;1.00
5743;DHT22;2896;53.500;10.020;2024-02-23T10:55:00;9.60;1.00
5743;DHT22;2896;53.500;10.020;2024-02-23T10:57:30;9.50;1.00
5743;DHT22;2896;53.500;10.020;2024-02-23T10:59:57;9.50;1.00
5743;DHT22;2896;53.500;10.020;2024-02-23T11:02:24;9.40;1.00
5743;DHT22;2896;53.500;10.020;2024-02-23T11:04:55;9.70;1.00
5743;DHT22;2896;53.500;10.020;2024-02-23T11:07:24;9.60;1.00
5743;DHT22;2896;53.500;10.020;2024-02-23T11:09:52;9.30;1.00
5743;DHT22;2896;53.500;10.020;2024-02-23T11:12:25;9.50;1.00
5743;DHT22;2896;53.500;10.020;2024-02-23T11:14:56;9.50;1.00
5743;DHT22;2896;53.500;10.020;2024-02-23T11:17:26;9.50;1.00
5743;DHT22;2896;53.500;10.020;2024-02-23T11:19:55;9.60;1.00
5743;DHT22;2896;53.500;10.020;2024-02-23T11:22:25;9.60;1.00
5743;DHT22;2896;53.500;10.020;2024-02-23T11:24:53;9.60;1.00
5743;DHT22;2896;53.500;10.020;2024-02-23T11:27:20;9.40;1.00
5743;DHT22;2896;53.500;10.020;2024-02-23T11:29:47;9.10;1.00
5743;DHT22;2896;53.500;10.020;2024-02-23T11:32:14;5.80;1.00
5743;DHT22;2896;53.500;10.020;2024-02-23T11:34:41;9.30;1.00
5743;DHT22;2896;53.500;10.020;2024-02-23T11:37:11;9.30;1.00
5743;DHT22;2896;53.500;10.020;2024-02-23T11:39:38;9.30;1.00
5743;DHT22;2896;53.500;10.020;2024-02-23T11:42:06;9.50;1.00
5743;DHT22;2896;53.500;10.020;2024-02-23T11:44:32;9.60;1.00
5743;DHT22;2896;53.500;10.020;2024-02-23T11:46:59;9.70;1.00
5743;DHT22;2896;53.500;10.020;2024-02-23T11:49:27;9.60;1.00
5743;DHT22;2896;53.500;10.020;2024-02-23T11:51:54;9.70;1.00
5743;DHT22;2896;53.500;10.020;2024-02-23T11:54:22;9.70;1.00
5743;DHT22;2896;53.500;10.020;2024-02-23T11:56:49;9.50;1.00
5743;DHT22;2896;53.500;10.020;2024-02-23T11:59:18;9.60;1.00
5743;DHT22;2896;53.500;10.020;2024-02-23T12:01:46;9.70;1.00
5743;DHT22;2896;53.500;10.020;2024-02-23T12:04:13;9.70;1.00
5743;DHT22;2896;53.500;10.020;2024-02-23T12:06:41;9.80;1.00
5743;DHT22;2896;53.500;10.020;2024-02-23T12:09:09;9.70;1.00
5743;DHT22;2896;53.500;10.020;2024-02-23T12:11:38;9.60;1.00
5743;DHT22;2896;53.500;10.020;2024-02-23T12:14:05;9.50;1.00
5743;DHT22;2896;53.500;10.020;2024-02-23T12:16:33;9.40;1.00
5743;DHT22;2896;53.500;10.020;2024-02-23T12:19:01;9.60;1.00
5743;DHT22;2896;53.500;10.020;2024-02-23T12:21:28;9.60;1.00
5743;DHT22;2896;53.500;10.020;2024-02-23T12:23:54;11.50;1.00
5743;DHT22;2896;53.500;10.020;2024-02-23T12:26:21;9.50;1.00
5743;DHT22;2896;53.500;10.020;2024-02-23T12:28:49;9.60;1.00
5743;DHT22;2896;53.500;10.020;2024-02-23T12:31:16;9.50;1.00
5743;DHT22;2896;53.500;10.020;2024-02-23T12:33:50;9.50;1.00
5743;DHT22;2896;53.500;10.020;2024-02-23T12:36:16;9.50;1.00
5743;DHT22;2896;53.500;10.020;2024-02-23T12:38:43;9.50;1.00
5743;DHT22;2896;53.500;10.020;2024-02-23T12:41:10;9.60;1.00
5743;DHT22;2896;53.500;10.020;2024-02-23T12:43:37;9.70;1.00
5743;DHT22;2896;53.500;10.020;2024-02-23T12:46:05;9.70;1.00
5743;DHT22;2896;53.500;10.020;2024-02-23T12:48:34;9.70;1.00
5743;DHT22;2896;53.500;10.020;2024-02-23T12:51:01;9.60;1.00
5743;DHT22;2896;53.500;10.020;2024-02-23T12:53:32;9.70;1.00
5743;DHT22;2896;53.500;10.020;2024-02-23T12:56:00;9.50;1.00
5743;DHT22;2896;53.500;10.020;2024-02-23T12:58:27;9.60;1.00
5743;DHT22;2896;53.500;10.020;2024-02-23T13:00:55;9.40;1.00
5743;DHT22;2896;53.500;10.020;2024-02-23T13:03:23;9.50;1.00
5743;DHT22;2896;53.500;10.020;2024-02-23T13:05:50;9.50;1.00
5743;DHT22;2896;53.500;10.020;2024-02-23T13:08:17;9.60;1.00
5743;DHT22;2896;53.500;10.020;2024-02-23T13:10:44;9.70;1.00
5743;DHT22;2896;53.500;10.020;2024-02-23T13:13:10;9.80;1.00
5743;DHT22;2896;53.500;10.020;2024-02-23T13:15:38;10.00;1.00
5743;DHT22;2896;53.500;10.020;2024-02-23T13:18:05;9.90;1.00
5743;DHT22;2896;53.500;10.020;2024-02-23T13:20:33;9.80;1.00
5743;DHT22;2896;53.500;10.020;2024-02-23T13:22:59;9.80;1.00
5743;DHT22;2896;53.500;10.020;2024-02-23T13:25:27;9.60;1.00
5743;DHT22;2896;53.500;10.020;2024-02-23T13:27:53;9.80;1.00
5743;DHT22;2896;53.500;10.020;2024-02-23T13:30:20;9.80;1.00
5743;DHT22;2896;53.500;10.020;2024-02-23T13:32:47;9.70;1.00
5743;DHT22;2896;53.500;10.020;2024-02-23T13:35:13;9.70;1.00
5743;DHT22;2896;53.500;10.020;2024-02-23T13:37:42;9.70;1.00
5743;DHT22;2896;53.500;10.020;2024-02-23T13:40:09;9.70;1.00
5743;DHT22;2896;53.500;10.020;2024-02-23T13:42:36;9.60;1.00
5743;DHT22;2896;53.500;10.020;2024-02-23T13:45:05;9.50;1.00
5743;DHT22;2896;53.500;10.020;2024-02-23T13:47:32;9.50;1.00
5743;DHT22;2896;53.500;10.020;2024-02-23T13:49:58;9.40;1.00
5743;DHT22;2896;53.500;10.020;2024-02-23T13:52:25;9.50;1.00
5743;DHT22;2896;53.500;10.020;2024-02-23T13:54:53;9.40;1.00
5743;DHT22;2896;53.500;10.020;2024-02-23T13:57:20;9.40;1.00
5743;DHT22;2896;53.500;10.020;2024-02-23T13:59:47;9.40;1.00
5743;DHT22;2896;53.500;10.020;2024-02-23T14:02:14;9.40;1.00
5743;DHT22;2896;53.500;10.020;2024-02-23T14:04:40;9.40;1.00
5743;DHT22;2896;53.500;10.020;2024-02-23T14:07:07;9.30;1.00
5743;DHT22;2896;53.500;10.020;2024-02-23T14:09:34;9.20;1.00
5743;DHT22;2896;53.500;10.020;2024-02-23T14:12:02;9.30;1.00
5743;DHT22;2896;53.500;10.020;2024-02-23T14:14:29;9.30;1.00
5743;DHT22;2896;53.500;10.020;2024-02-23T14:16:56;9.40;1.00
5743;DHT22;2896;53.500;10.020;2024-02-23T14:19:23;9.40;1.00
5743;DHT22;2896;53.500;10.020;2024-02-23T14:21:50;9.50;1.00
5743;DHT22;2896;53.500;10.020;2024-02-23T14:24:17;9.50;1.00
5743;DHT22;2896;53.500;10.020;2024-02-23T14:26:43;9.60;1.00
5743;DHT22;2896;53.500;10.020;2024-02-23T14:29:11;9.70;1.00
5743;DHT22;2896;53.500;10.020;2024-02-23T14:31:39;10.50;1.00
5743;DHT22;2896;53.500;10.020;2024-02-23T14:34:05;11.50;1.00
5743;DHT22;2896;53.500;10.020;2024-02-23T14:36:32;12.30;1.00
5743;DHT22;2896;53.500;10.020;2024-02-23T14:39:00;12.90;1.00
5743;DHT22;2896;53.500;10.020;2024-02-23T14:41:26;13.10;1.00
5743;DHT22;2896;53.500;10.020;2024-02-23T14:43:53;13.30;1.00
5743;DHT22;2896;53.500;10.020;2024-02-23T14:46:21;13.00;1.00
5743;DHT22;2896;53.500;10.020;2024-02-23T14:48:47;12.30;1.00
5743;DHT22;2896;53.500;10.020;2024-02-23T14:51:14;11.90;1.00
5743;DHT22;2896;53.500;10.020;2024-02-23T14:53:41;11.70;1.00
5743;DHT22;2896;53.500;10.020;2024-02-23T14:56:08;11.20;1.00
5743;DHT22;2896;53.500;10.020;2024-02-23T14:58:35;10.80;1.00
5743;DHT22;2896;53.500;10.020;2024-02-23T15:01:01;10.70;1.00
5743;DHT22;2896;53.500;10.020;2024-02-23T15:03:30;10.40;1.00
5743;DHT22;2896;53.500;10.020;2024-02-23T15:05:58;10.20;1.00
5743;DHT22;2896;53.500;10.020;2024-02-23T15:08:26;10.10;1.00
5743;DHT22;2896;53.500;10.020;2024-02-23T15:10:53;10.10;1.00
5743;DHT22;2896;53.500;10.020;2024-02-23T15:13:20;10.20;1.00
5743;DHT22;2896;53.500;10.020;2024-02-23T15:15:47;10.20;1.00
5743;DHT22;2896;53.500;10.020;2024-02-23T15:18:13;10.10;1.00
5743;DHT22;2896;53.500;10.020;2024-02-23T15:20:41;9.90;1.00
5743;DHT22;2896;53.500;10.020;2024-02-23T15:23:08;9.80;1.00
5743;DHT22;2896;53.500;10.020;2024-02-23T15:25:35;10.00;1.00
5743;DHT22;2896;53.500;10.020;2024-02-23T15:28:01;10.10;1.00
5743;DHT22;2896;53.500;10.020;2024-02-23T15:30:28;10.10;1.00
5743;DHT22;2896;53.500;10.020;2024-02-23T15:32:55;10.00;1.00
5743;DHT22;2896;53.500;10.020;2024-02-23T15:35:22;10.00;1.00
5743;DHT22;2896;53.500;10.020;2024-02-23T15:37:53;9.90;1.00
5743;DHT22;2896;53.500;10.020;2024-02-23T15:40:19;10.00;1.00
5743;DHT22;2896;53.500;10.020;2024-02-23T15:42:46;9.90;1.00
5743;DHT22;2896;53.500;10.020;2024-02-23T15:45:15;9.90;1.00
5743;DHT22;2896;53.500;10.020;2024-02-23T15:47:42;9.90;1.00
5743;DHT22;2896;53.500;10.020;2024-02-23T15:50:09;9.80;1.00
5743;DHT22;2896;53.500;10.020;2024-02-23T15:52:36;9.70;1.00
5743;DHT22;2896;53.500;10.020;2024-02-23T15:55:05;9.70;1.00
5743;DHT22;2896;53.500;10.020;2024-02-23T15:57:36;9.60;1.00
5743;DHT22;2896;53.500;10.020;2024-02-23T16:00:04;9.60;1.00
5743;DHT22;2896;53.500;10.020;2024-02-23T16:02:35;9.50;1.00
5743;DHT22;2896;53.500;10.020;2024-02-23T16:05:03;9.50;1.00
5743;DHT22;2896;53.500;10.020;2024-02-23T16:07:32;9.50;1.00
5743;DHT22;2896;53.500;10.020;2024-02-23T16:10:00;9.40;1.00
5743;DHT22;2896;53.500;10.020;2024-02-23T16:12:28;9.30;1.00
5743;DHT22;2896;53.500;10.020;2024-02-23T16:14:54;9.30;1.00
5743;DHT22;2896;53.500;10.020;2024-02-23T16:17:21;9.30;1.00
5743;DHT22;2896;53.500;10.020;2024-02-23T16:19:48;9.40;1.00
5743;DHT22;2896;53.500;10.020;2024-02-23T16:22:15;9.30;1.00
5743;DHT22;2896;53.500;10.020;2024-02-23T16:24:41;9.20;1.00
5743;DHT22;2896;53.500;10.020;2024-02-23T16:27:08;9.20;1.00
5743;DHT22;2896;53.500;10.020;2024-02-23T16:29:36;9.20;1.00
5743;DHT22;2896;53.500;10.020;2024-02-23T16:32:03;9.10;1.00
5743;DHT22;2896;53.500;10.020;2024-02-23T16:34:30;9.10;1.00
5743;DHT22;2896;53.500;10.020;2024-02-23T16:36:57;9.10;1.00
5743;DHT22;2896;53.500;10.020;2024-02-23T16:39:24;9.00;1.00
5743;DHT22;2896;53.500;10.020;2024-02-23T16:41:50;8.90;1.00
5743;DHT22;2896;53.500;10.020;2024-02-23T16:44:17;8.90;1.00
5743;DHT22;2896;53.500;10.020;2024-02-23T16:46:47;8.90;1.00
5743;DHT22;2896;53.500;10.020;2024-02-23T16:49:13;8.80;1.00
5743;DHT22;2896;53.500;10.020;2024-02-23T16:51:40;8.80;1.00
5743;DHT22;2896;53.500;10.020;2024-02-23T16:54:08;8.80;1.00
5743;DHT22;2896;53.500;10.020;2024-02-23T16:56:36;8.80;1.00
5743;DHT22;2896;53.500;10.020;2024-02-23T16:59:02;8.70;1.00
5743;DHT22;2896;53.500;10.020;2024-02-23T17:01:29;8.80;1.00
5743;DHT22;2896;53.500;10.020;2024-02-23T17:03:57;8.80;1.00
5743;DHT22;2896;53.500;10.020;2024-02-23T17:06:24;8.90;1.00
5743;DHT22;2896;53.500;10.020;2024-02-23T17:08:50;8.80;1.00
5743;DHT22;2896;53.500;10.020;2024-02-23T17:11:18;8.70;1.00
5743;DHT22;2896;53.500;10.020;2024-02-23T17:13:45;8.70;1.00
5743;DHT22;2896;53.500;10.020;2024-02-23T17:16:12;8.80;1.00
5743;DHT22;2896;53.500;10.020;2024-02-23T17:18:39;8.80;1.00
5743;DHT22;2896;53.500;10.020;2024-02-23T17:21:07;8.80;1.00
5743;DHT22;2896;53.500;10.020;2024-02-23T17:23:34;8.70;99.90
5743;DHT22;2896;53.500;10.020;2024-02-23T17:26:01;8.50;99.90
5743;DHT22;2896;53.500;10.020;2024-02-23T17:28:29;8.30;99.90
5743;DHT22;2896;53.500;10.020;2024-02-23T17:30:56;8.10;99.90
5743;DHT22;2896;53.500;10.020;2024-02-23T17:33:23;7.90;1.00
5743;DHT22;2896;53.500;10.020;2024-02-23T17:35:50;7.80;1.00
5743;DHT22;2896;53.500;10.020;2024-02-23T17:38:18;7.70;20.40
5743;DHT22;2896;53.500;10.020;2024-02-23T17:40:44;7.70;99.90
5743;DHT22;2896;53.500;10.020;2024-02-23T17:43:15;7.70;99.90
5743;DHT22;2896;53.500;10.020;2024-02-23T17:45:42;7.70;99.90
5743;DHT22;2896;53.500;10.020;2024-02-23T17:48:09;7.70;99.90
5743;DHT22;2896;53.500;10.020;2024-02-23T17:50:36;7.60;99.90
5743;DHT22;2896;53.500;10.020;2024-02-23T17:53:03;7.50;1.00
5743;DHT22;2896;53.500;10.020;2024-02-23T17:55:31;7.40;1.00
5743;DHT22;2896;53.500;10.020;2024-02-23T17:57:57;7.30;1.00
5743;DHT22;2896;53.500;10.020;2024-02-23T18:00:24;7.20;1.00
5743;DHT22;2896;53.500;10.020;2024-02-23T18:02:50;7.20;1.00
5743;DHT22;2896;53.500;10.020;2024-02-23T18:05:17;7.10;1.00
5743;DHT22;2896;53.500;10.020;2024-02-23T18:07:44;7.20;1.00
5743;DHT22;2896;53.500;10.020;2024-02-23T18:10:10;7.20;1.00
5743;DHT22;2896;53.500;10.020;2024-02-23T18:12:38;7.20;1.00
5743;DHT22;2896;53.500;10.020;2024-02-23T18:15:07;7.20;1.00
5743;DHT22;2896;53.500;10.020;2024-02-23T18:17:34;7.20;99.90
5743;DHT22;2896;53.500;10.020;2024-02-23T18:20:00;7.20;99.90
5743;DHT22;2896;53.500;10.020;2024-02-23T18:22:27;7.40;1.00
5743;DHT22;2896;53.500;10.020;2024-02-23T18:24:54;7.40;1.00
5743;DHT22;2896;53.500;10.020;2024-02-23T18:27:21;7.50;99.90
5743;DHT22;2896;53.500;10.020;2024-02-23T18:29:51;7.60;99.90
5743;DHT22;2896;53.500;10.020;2024-02-23T18:32:18;7.60;97.50
5743;DHT22;2896;53.500;10.020;2024-02-23T18:34:45;7.60;1.00
5743;DHT22;2896;53.500;10.020;2024-02-23T18:37:12;7.50;1.00
5743;DHT22;2896;53.500;10.020;2024-02-23T18:39:39;7.50;1.00
5743;DHT22;2896;53.500;10.020;2024-02-23T18:42:06;7.50;1.00
5743;DHT22;2896;53.500;10.020;2024-02-23T18:44:33;7.50;99.90
5743;DHT22;2896;53.500;10.020;2024-02-23T18:47:01;7.50;99.90
5743;DHT22;2896;53.500;10.020;2024-02-23T18:49:28;7.50;99.90
5743;DHT22;2896;53.500;10.020;2024-02-23T18:51:57;7.50;99.90
5743;DHT22;2896;53.500;10.020;2024-02-23T18:54:24;7.60;99.90
5743;DHT22;2896;53.500;10.020;2024-02-23T18:56:51;7.60;99.90
5743;DHT22;2896;53.500;10.020;2024-02-23T18:59:18;7.50;99.90
5743;DHT22;2896;53.500;10.020;2024-02-23T19:01:45;7.60;99.90
5743;DHT22;2896;53.500;10.020;2024-02-23T19:04:13;7.40;99.90
5743;DHT22;2896;53.500;10.020;2024-02-23T19:06:39;7.40;99.90